Time;durP1;ratioP1;P1;durP2;ratioP2;P2;SDS_P1;SDS_P2;PMS_P1;PMS_P2;Temp;Humidity;BMP_temperature;BMP_pressure;BME280_temperature;BME280_humidity;BME280_pressure;Samples;Min_cycle;Max_cycle;Signal;HPM_P1;HPM_P2
2022/10/21 00:00:58;;;;;;;;;;;;;;;;;;2098496;28;20437;-54
2022/10/21 00:01:59;;;;;;;;;;;;;;;;;;2098374;28;19961;-55
2022/10/21 00:03:00;;;;;;;;;;;;;;;;;;2098355;28;19964;-55
2022/10/21 00:04:01;;;;;;;;;;;;;;;;;;2098648;28;19921;-55
2022/10/21 00:05:02;;;;;;;;;;;;;;;;;;2098343;28;19926;-55
2022/10/21 00:06:02;;;;;;;;;;;;;;;;;;2098490;28;19920;-54
2022/10/21 00:07:03;;;;;;;;;;;;;;;;;;2098278;28;19927;-55
2022/10/21 00:08:04;;;;;;;;;;;;;;;;;;2098409;28;20361;-55
2022/10/21 00:09:05;;;;;;;;;;;;;;;;;;2098536;28;20403;-55
2022/10/21 00:10:06;;;;;;;;;;;;;;;;;;2098069;28;20007;-55
2022/10/21 00:11:06;;;;;;;;;;;;;;;;;;2098200;28;20478;-55
2022/10/21 00:12:07;;;;;;;;;;;;;;;;;;2098302;28;20745;-54
2022/10/21 00:13:08;;;;;;;;;;;;;;;;;;2098373;28;20015;-55
2022/10/21 00:14:09;;;;;;;;;;;;;;;;;;2098305;28;19924;-55
2022/10/21 00:15:10;;;;;;;;;;;;;;;;;;2098312;28;19920;-55
2022/10/21 00:16:10;;;;;;;;;;;;;;;;;;2098273;28;19924;-55
2022/10/21 00:17:11;;;;;;;;;;;;;;;;;;2098196;28;19920;-56
2022/10/21 00:18:12;;;;;;;;;;;;;;;;;;2098342;28;19927;-55
2022/10/21 00:19:13;;;;;;;;;;;;;;;;;;2098423;28;20431;-55
2022/10/21 00:20:14;;;;;;;;;;;;;;;;;;2098198;28;20015;-55
2022/10/21 00:21:15;;;;;;;;;;;;;;;;;;2098373;28;19972;-55
2022/10/21 00:22:15;;;;;;;;;;;;;;;;;;2098179;28;20004;-55
2022/10/21 00:23:16;;;;;;;;;;;;;;;;;;2098157;28;19924;-55
2022/10/21 00:24:17;;;;;;;;;;;;;;;;;;2098372;28;20365;-55
2022/10/21 00:25:18;;;;;;;;;;;;;;;;;;2100897;28;20628;-55
2022/10/21 00:26:19;;;;;;;;;;;;;;;;;;2106718;28;19920;-54
2022/10/21 00:27:20;;;;;;;;;;;;;;;;;;2106500;28;19920;-54
2022/10/21 00:28:21;;;;;;;;;;;;;;;;;;2106649;28;19920;-55
2022/10/21 00:29:22;;;;;;;;;;;;;;;;;;2106627;28;19920;-54
2022/10/21 00:30:23;;;;;;;;;;;;;;;;;;2106683;28;20308;-54
2022/10/21 00:31:24;;;;;;;;;;;;;;;;;;2106575;28;20493;-55
2022/10/21 00:32:24;;;;;;;;;;;;;;;;;;2106231;28;19920;-55
2022/10/21 00:33:25;;;;;;;;;;;;;;;;;;2106421;28;19957;-55
2022/10/21 00:34:26;;;;;;;;;;;;;;;;;;2106523;28;20393;-55
2022/10/21 00:35:31;;;;;;;;;;;;;;;;;;2106694;28;19920;-54
2022/10/21 00:36:31;;;;;;;;;;;;;;;;;;2106479;28;19920;-55
2022/10/21 00:37:32;;;;;;;;;;;;;;;;;;2106686;28;19927;-54
2022/10/21 00:38:33;;;;;;;;;;;;;;;;;;2106612;28;19959;-55
2022/10/21 00:39:34;;;;;;;;;;;;;;;;;;2106561;28;19963;-54
2022/10/21 00:40:35;;;;;;;;;;;;;;;;;;2106476;28;19920;-54
2022/10/21 00:41:35;;;;;;;;;;;;;;;;;;2106586;28;19924;-55
2022/10/21 00:42:36;;;;;;;;;;;;;;;;;;2106649;28;20367;-54
2022/10/21 00:43:40;;;;;;;;;;;;;;;;;;2106461;28;19920;-55
2022/10/21 00:44:40;;;;;;;;;;;;;;;;;;2106625;28;19968;-54
2022/10/21 00:45:41;;;;;;;;;;;;;;;;;;2106483;28;20277;-53
2022/10/21 00:46:42;;;;;;;;;;;;;;;;;;2106512;28;19965;-54
2022/10/21 00:47:43;;;;;;;;;;;;;;;;;;2106494;28;19920;-55
2022/10/21 00:48:44;;;;;;;;;;;;;;;;;;2106590;28;20017;-55
2022/10/21 00:49:45;;;;;;;;;;;;;;;;;;2106524;28;20045;-55
2022/10/21 00:50:45;;;;;;;;;;;;;;;;;;2106334;28;19920;-54
2022/10/21 00:51:46;;;;;;;;;;;;;;;;;;2106361;28;19924;-55
2022/10/21 00:52:47;;;;;;;;;;;;;;;;;;2106557;28;19920;-55
2022/10/21 00:53:48;;;;;;;;;;;;;;;;;;2106439;28;19926;-54
2022/10/21 00:54:48;;;;;;;;;;;;;;;;;;2106370;28;19920;-55
2022/10/21 00:55:49;;;;;;;;;;;;;;;;;;2106406;28;20308;-55
2022/10/21 00:56:50;;;;;;;;;;;;;;;;;;2106333;28;19963;-54
2022/10/21 00:57:52;;;;;;;;;;;;;;;;;;2106525;28;20386;-55
2022/10/21 00:58:53;;;;;;;;;;;;;;;;;;2106452;28;19939;-55
2022/10/21 00:59:53;;;;;;;;;;;;;;;;;;2106526;28;20356;-55
2022/10/21 01:00:54;;;;;;;;;;;;;;;;;;2106466;28;20261;-55
2022/10/21 01:01:55;;;;;;;;;;;;;;;;;;2106422;28;19924;-55
2022/10/21 01:02:56;;;;;;;;;;;;;;;;;;2106336;28;19928;-54
2022/10/21 01:03:57;;;;;;;;;;;;;;;;;;2106537;28;19985;-55
2022/10/21 01:04:57;;;;;;;;;;;;;;;;;;2106489;28;19920;-54
2022/10/21 01:05:58;;;;;;;;;;;;;;;;;;2106258;28;19971;-54
2022/10/21 01:06:59;;;;;;;;;;;;;;;;;;2106293;28;19927;-54
2022/10/21 01:08:00;;;;;;;;;;;;;;;;;;2106266;28;19920;-54
2022/10/21 01:09:01;;;;;;;;;;;;;;;;;;2106480;28;19947;-54
2022/10/21 01:10:02;;;;;;;;;;;;;;;;;;2103048;28;20011;-52
2022/10/21 01:11:02;;;;;;;;;;;;;;;;;;2097898;28;20017;-55
2022/10/21 01:12:03;;;;;;;;;;;;;;;;;;2098017;28;19962;-55
2022/10/21 01:13:04;;;;;;;;;;;;;;;;;;2097978;28;20276;-55
2022/10/21 01:14:05;;;;;;;;;;;;;;;;;;2098127;28;19958;-54
2022/10/21 01:15:06;;;;;;;;;;;;;;;;;;2098019;28;19988;-54
2022/10/21 01:16:07;;;;;;;;;;;;;;;;;;2097968;28;19924;-55
2022/10/21 01:17:07;;;;;;;;;;;;;;;;;;2097906;28;20667;-55
2022/10/21 01:18:21;;;;;;;;;;;;;;;;;;2097980;28;20028;-54
2022/10/21 01:19:22;;;;;;;;;;;;;;;;;;2097917;28;19920;-54
2022/10/21 01:20:22;;;;;;;;;;;;;;;;;;2098038;28;20369;-55
2022/10/21 01:21:23;;;;;;;;;;;;;;;;;;2099351;28;19928;-53
2022/10/21 01:22:24;;;;;;;;;;;;;;;;;;2106487;28;19958;-53
2022/10/21 01:23:25;;;;;;;;;;;;;;;;;;2106306;28;19927;-54
2022/10/21 01:24:26;;;;;;;;;;;;;;;;;;2106259;28;20455;-54
2022/10/21 01:25:26;;;;;;;;;;;;;;;;;;2106236;28;19924;-55
2022/10/21 01:26:27;;;;;;;;;;;;;;;;;;2106353;28;19958;-54
2022/10/21 01:27:28;;;;;;;;;;;;;;;;;;2106381;28;20353;-54
2022/10/21 01:28:29;;;;;;;;;;;;;;;;;;2106226;28;19943;-54
2022/10/21 01:29:30;;;;;;;;;;;;;;;;;;2097961;28;19920;-54
2022/10/21 01:30:31;;;;;;;;;;;;;;;;;;2097747;28;19927;-54
2022/10/21 01:31:31;;;;;;;;;;;;;;;;;;2097827;28;19921;-52
2022/10/21 01:32:32;;;;;;;;;;;;;;;;;;2097825;28;19970;-54
2022/10/21 01:33:33;;;;;;;;;;;;;;;;;;2097998;28;19921;-53
2022/10/21 01:34:34;;;;;;;;;;;;;;;;;;2097803;28;19959;-54
2022/10/21 01:35:35;;;;;;;;;;;;;;;;;;2097855;28;19971;-54
2022/10/21 01:36:35;;;;;;;;;;;;;;;;;;2097781;28;19920;-55
2022/10/21 01:37:36;;;;;;;;;;;;;;;;;;2097792;28;19939;-53
2022/10/21 01:38:37;;;;;;;;;;;;;;;;;;2097823;28;20003;-53
2022/10/21 01:39:38;;;;;;;;;;;;;;;;;;2097840;28;20015;-53
2022/10/21 01:40:39;;;;;;;;;;;;;;;;;;2097925;28;19920;-53
2022/10/21 01:41:40;;;;;;;;;;;;;;;;;;2097801;28;19959;-53
2022/10/21 01:42:41;;;;;;;;;;;;;;;;;;2097928;28;19946;-54
2022/10/21 01:43:41;;;;;;;;;;;;;;;;;;2097869;28;19920;-54
2022/10/21 01:44:42;;;;;;;;;;;;;;;;;;2097975;28;19972;-54
2022/10/21 01:45:43;;;;;;;;;;;;;;;;;;2099428;28;20062;-54
2022/10/21 01:46:44;;;;;;;;;;;;;;;;;;2099363;28;20289;-54
2022/10/21 01:47:45;;;;;;;;;;;;;;;;;;2099396;28;19920;-52
2022/10/21 01:48:46;;;;;;;;;;;;;;;;;;2099202;28;19924;-54
2022/10/21 01:49:47;;;;;;;;;;;;;;;;;;2099254;28;19928;-55
2022/10/21 01:50:48;;;;;;;;;;;;;;;;;;2099108;28;19928;-55
2022/10/21 01:51:48;;;;;;;;;;;;;;;;;;2099262;28;20007;-54
2022/10/21 01:52:49;;;;;;;;;;;;;;;;;;2099144;28;20305;-54
2022/10/21 01:53:50;;;;;;;;;;;;;;;;;;2099575;28;19924;-55
2022/10/21 01:54:51;;;;;;;;;;;;;;;;;;2099201;28;20014;-55
2022/10/21 01:55:51;;;;;;;;;;;;;;;;;;2099193;28;19928;-55
2022/10/21 01:56:52;;;;;;;;;;;;;;;;;;2099261;28;19956;-54
2022/10/21 01:57:53;;;;;;;;;;;;;;;;;;2099314;28;20262;-54
2022/10/21 01:58:54;;;;;;;;;;;;;;;;;;2099185;28;19926;-54
2022/10/21 01:59:55;;;;;;;;;;;;;;;;;;2099218;28;19930;-55
2022/10/21 02:00:56;;;;;;;;;;;;;;;;;;2099145;28;20000;-53
2022/10/21 02:01:56;;;;;;;;;;;;;;;;;;2099031;28;19920;-55
2022/10/21 02:02:57;;;;;;;;;;;;;;;;;;2099265;28;19927;-55
2022/10/21 02:03:58;;;;;;;;;;;;;;;;;;2099149;28;19989;-55
2022/10/21 02:04:59;;;;;;;;;;;;;;;;;;2099229;28;20023;-55
2022/10/21 02:06:00;;;;;;;;;;;;;;;;;;2099256;28;19924;-54
2022/10/21 02:07:01;;;;;;;;;;;;;;;;;;2099057;28;20306;-54
2022/10/21 02:08:01;;;;;;;;;;;;;;;;;;2099048;28;19921;-55
2022/10/21 02:09:02;;;;;;;;;;;;;;;;;;2099116;28;19921;-55
2022/10/21 02:10:03;;;;;;;;;;;;;;;;;;2099056;28;19920;-55
2022/10/21 02:11:04;;;;;;;;;;;;;;;;;;2099024;28;19972;-55
2022/10/21 02:12:05;;;;;;;;;;;;;;;;;;2099176;28;19924;-55
2022/10/21 02:13:05;;;;;;;;;;;;;;;;;;2099122;28;19920;-55
2022/10/21 02:14:06;;;;;;;;;;;;;;;;;;2099058;28;20028;-54
2022/10/21 02:15:07;;;;;;;;;;;;;;;;;;2099036;28;19971;-55
2022/10/21 02:16:08;;;;;;;;;;;;;;;;;;2099314;28;19920;-55
2022/10/21 02:17:09;;;;;;;;;;;;;;;;;;2098942;28;20076;-56
2022/10/21 02:18:09;;;;;;;;;;;;;;;;;;2104662;28;19920;-55
2022/10/21 02:19:11;;;;;;;;;;;;;;;;;;2107566;28;19920;-55
2022/10/21 02:20:11;;;;;;;;;;;;;;;;;;2107372;28;19976;-55
2022/10/21 02:21:12;;;;;;;;;;;;;;;;;;2107503;28;19970;-55
2022/10/21 02:22:13;;;;;;;;;;;;;;;;;;2107411;28;19981;-55
2022/10/21 02:23:14;;;;;;;;;;;;;;;;;;2107372;28;19959;-55
2022/10/21 02:24:15;;;;;;;;;;;;;;;;;;2107361;28;20389;-55
2022/10/21 02:25:16;;;;;;;;;;;;;;;;;;2107188;28;19924;-55
2022/10/21 02:26:17;;;;;;;;;;;;;;;;;;2107352;28;19927;-55
2022/10/21 02:27:18;;;;;;;;;;;;;;;;;;2107257;28;19920;-55
2022/10/21 02:28:18;;;;;;;;;;;;;;;;;;2107322;28;19973;-55
2022/10/21 02:29:19;;;;;;;;;;;;;;;;;;2107304;28;19920;-56
2022/10/21 02:30:20;;;;;;;;;;;;;;;;;;2107301;28;19927;-55
2022/10/21 02:31:21;;;;;;;;;;;;;;;;;;2107308;28;19951;-56
2022/10/21 02:32:22;;;;;;;;;;;;;;;;;;2107362;28;20405;-56
2022/10/21 02:33:23;;;;;;;;;;;;;;;;;;2107265;28;20026;-56
2022/10/21 02:34:26;;;;;;;;;;;;;;;;;;2107462;28;19920;-56
2022/10/21 02:35:27;;;;;;;;;;;;;;;;;;2107221;28;19924;-56
2022/10/21 02:36:27;;;;;;;;;;;;;;;;;;2107343;28;20395;-56
2022/10/21 02:37:28;;;;;;;;;;;;;;;;;;2107380;28;19920;-55
2022/10/21 02:38:29;;;;;;;;;;;;;;;;;;2107386;28;19927;-56
2022/10/21 02:39:30;;;;;;;;;;;;;;;;;;2107470;28;19920;-55
2022/10/21 02:40:31;;;;;;;;;;;;;;;;;;2107250;28;20361;-55
2022/10/21 02:41:32;;;;;;;;;;;;;;;;;;2107226;28;20327;-56
2022/10/21 02:42:32;;;;;;;;;;;;;;;;;;2107216;28;19978;-55
2022/10/21 02:43:33;;;;;;;;;;;;;;;;;;2107405;28;19955;-55
2022/10/21 02:44:34;;;;;;;;;;;;;;;;;;2107205;28;20391;-55
2022/10/21 02:45:35;;;;;;;;;;;;;;;;;;2107293;28;19971;-55
2022/10/21 02:46:36;;;;;;;;;;;;;;;;;;2107138;28;19923;-55
2022/10/21 02:47:37;;;;;;;;;;;;;;;;;;2107306;28;19924;-56
2022/10/21 02:48:38;;;;;;;;;;;;;;;;;;2107368;28;19920;-55
2022/10/21 02:49:39;;;;;;;;;;;;;;;;;;2107207;28;19919;-55
2022/10/21 02:50:40;;;;;;;;;;;;;;;;;;2107305;28;20419;-55
2022/10/21 02:51:41;;;;;;;;;;;;;;;;;;2107101;28;19919;-56
2022/10/21 02:52:41;;;;;;;;;;;;;;;;;;2107247;28;19955;-56
2022/10/21 02:53:42;;;;;;;;;;;;;;;;;;2107196;28;20396;-55
2022/10/21 02:54:43;;;;;;;;;;;;;;;;;;2107337;28;20483;-55
2022/10/21 02:55:44;;;;;;;;;;;;;;;;;;2107123;28;19943;-55
2022/10/21 02:56:45;;;;;;;;;;;;;;;;;;2107260;28;20388;-56
2022/10/21 02:57:46;;;;;;;;;;;;;;;;;;2107232;28;20360;-55
2022/10/21 02:58:46;;;;;;;;;;;;;;;;;;2107178;28;19980;-55
2022/10/21 02:59:47;;;;;;;;;;;;;;;;;;2107311;28;19920;-56
2022/10/21 03:00:48;;;;;;;;;;;;;;;;;;2107132;28;19967;-56
2022/10/21 03:01:49;;;;;;;;;;;;;;;;;;2107204;28;20007;-55
2022/10/21 03:02:50;;;;;;;;;;;;;;;;;;2107080;28;19927;-55
2022/10/21 03:03:51;;;;;;;;;;;;;;;;;;2107270;28;19977;-55
2022/10/21 03:04:51;;;;;;;;;;;;;;;;;;2107102;28;19920;-55
2022/10/21 03:05:52;;;;;;;;;;;;;;;;;;2107250;28;19926;-55
2022/10/21 03:06:53;;;;;;;;;;;;;;;;;;2107106;28;19927;-55
2022/10/21 03:07:54;;;;;;;;;;;;;;;;;;2107037;28;19926;-55
2022/10/21 03:08:55;;;;;;;;;;;;;;;;;;2107210;28;20060;-54
2022/10/21 03:09:56;;;;;;;;;;;;;;;;;;2104652;28;19947;-55
2022/10/21 03:10:56;;;;;;;;;;;;;;;;;;2098591;28;20003;-56
2022/10/21 03:11:57;;;;;;;;;;;;;;;;;;2098661;28;20377;-55
2022/10/21 03:12:58;;;;;;;;;;;;;;;;;;2098832;28;19924;-55
2022/10/21 03:13:59;;;;;;;;;;;;;;;;;;2100686;28;19963;-55
2022/10/21 03:15:00;;;;;;;;;;;;;;;;;;2107216;28;19927;-55
2022/10/21 03:16:00;;;;;;;;;;;;;;;;;;2107022;28;19963;-55
2022/10/21 03:17:01;;;;;;;;;;;;;;;;;;2106968;28;19919;-55
2022/10/21 03:18:02;;;;;;;;;;;;;;;;;;2107115;28;19920;-54
2022/10/21 03:19:03;;;;;;;;;;;;;;;;;;2107162;28;19920;-54
2022/10/21 03:20:04;;;;;;;;;;;;;;;;;;2107108;28;20488;-54
2022/10/21 03:21:04;;;;;;;;;;;;;;;;;;2106811;28;19966;-55
2022/10/21 03:22:05;;;;;;;;;;;;;;;;;;2107077;28;19934;-54
2022/10/21 03:23:06;;;;;;;;;;;;;;;;;;2107037;28;19924;-55
2022/10/21 03:24:07;;;;;;;;;;;;;;;;;;2106991;28;19924;-55
2022/10/21 03:25:11;;;;;;;;;;;;;;;;;;2107043;28;20029;-55
2022/10/21 03:26:12;;;;;;;;;;;;;;;;;;2107201;28;20424;-55
2022/10/21 03:27:12;;;;;;;;;;;;;;;;;;2106903;28;19959;-55
2022/10/21 03:28:13;;;;;;;;;;;;;;;;;;2106933;28;19971;-55
2022/10/21 03:29:14;;;;;;;;;;;;;;;;;;2106902;28;19919;-55
2022/10/21 03:30:15;;;;;;;;;;;;;;;;;;2107088;28;19920;-54
2022/10/21 03:31:16;;;;;;;;;;;;;;;;;;2106870;28;20058;-55
2022/10/21 03:32:17;;;;;;;;;;;;;;;;;;2106811;28;19986;-55
2022/10/21 03:33:17;;;;;;;;;;;;;;;;;;2107038;28;20300;-55
2022/10/21 03:34:18;;;;;;;;;;;;;;;;;;2106938;28;20272;-55
2022/10/21 03:35:19;;;;;;;;;;;;;;;;;;2107028;28;19920;-55
2022/10/21 03:36:20;;;;;;;;;;;;;;;;;;2106885;28;19920;-55
2022/10/21 03:37:21;;;;;;;;;;;;;;;;;;2107113;28;20062;-54
2022/10/21 03:38:22;;;;;;;;;;;;;;;;;;2106834;28;20014;-55
2022/10/21 03:39:22;;;;;;;;;;;;;;;;;;2106977;28;19970;-54
2022/10/21 03:40:28;;;;;;;;;;;;;;;;;;2107058;28;19920;-54
2022/10/21 03:41:29;;;;;;;;;;;;;;;;;;2106810;28;19920;-55
2022/10/21 03:42:30;;;;;;;;;;;;;;;;;;2106876;28;20001;-55
2022/10/21 03:43:30;;;;;;;;;;;;;;;;;;2106811;28;19951;-54
2022/10/21 03:44:31;;;;;;;;;;;;;;;;;;2106858;28;20448;-54
2022/10/21 03:45:32;;;;;;;;;;;;;;;;;;2106898;28;19920;-54
2022/10/21 03:46:33;;;;;;;;;;;;;;;;;;2106922;28;19919;-55
2022/10/21 03:47:34;;;;;;;;;;;;;;;;;;2106868;28;20388;-55
2022/10/21 03:48:35;;;;;;;;;;;;;;;;;;2106829;28;19920;-54
2022/10/21 03:49:35;;;;;;;;;;;;;;;;;;2106807;28;19920;-55
2022/10/21 03:50:36;;;;;;;;;;;;;;;;;;2106924;28;19924;-54
2022/10/21 03:51:37;;;;;;;;;;;;;;;;;;2106712;28;19966;-55
2022/10/21 03:52:38;;;;;;;;;;;;;;;;;;2106709;28;19920;-55
2022/10/21 03:53:39;;;;;;;;;;;;;;;;;;2106882;28;19919;-55
2022/10/21 03:54:44;;;;;;;;;;;;;;;;;;2106803;28;19962;-54
2022/10/21 03:55:45;;;;;;;;;;;;;;;;;;2106946;28;19926;-55
2022/10/21 03:56:46;;;;;;;;;;;;;;;;;;2106668;28;20018;-54
2022/10/21 03:57:46;;;;;;;;;;;;;;;;;;2106746;28;19924;-54
2022/10/21 03:58:47;;;;;;;;;;;;;;;;;;2106821;28;20369;-54
2022/10/21 03:59:48;;;;;;;;;;;;;;;;;;2106848;28;19920;-54
2022/10/21 04:00:49;;;;;;;;;;;;;;;;;;2106719;28;19966;-54
2022/10/21 04:01:50;;;;;;;;;;;;;;;;;;2106816;28;19963;-55
2022/10/21 04:02:51;;;;;;;;;;;;;;;;;;2106933;28;20361;-55
2022/10/21 04:03:51;;;;;;;;;;;;;;;;;;2106745;28;19920;-52
2022/10/21 04:04:52;;;;;;;;;;;;;;;;;;2106751;28;20011;-54
2022/10/21 04:05:54;;;;;;;;;;;;;;;;;;2106757;28;19949;-55
2022/10/21 04:06:55;;;;;;;;;;;;;;;;;;2106619;28;19920;-55
2022/10/21 04:07:55;;;;;;;;;;;;;;;;;;2106116;28;19930;-55
2022/10/21 04:08:56;;;;;;;;;;;;;;;;;;2106744;28;19967;-55
2022/10/21 04:09:57;;;;;;;;;;;;;;;;;;2103915;28;19923;-55
2022/10/21 04:10:58;;;;;;;;;;;;;;;;;;2106535;28;19930;-54
2022/10/21 04:11:58;;;;;;;;;;;;;;;;;;2106677;28;19924;-55
2022/10/21 04:12:59;;;;;;;;;;;;;;;;;;2106628;28;19985;-54
2022/10/21 04:14:00;;;;;;;;;;;;;;;;;;2106679;28;19967;-55
2022/10/21 04:15:01;;;;;;;;;;;;;;;;;;2106737;28;20016;-55
2022/10/21 04:16:02;;;;;;;;;;;;;;;;;;2106834;28;20456;-55
2022/10/21 04:17:03;;;;;;;;;;;;;;;;;;2106583;28;19977;-56
2022/10/21 04:18:07;;;;;;;;;;;;;;;;;;2099313;28;19942;-55
2022/10/21 04:19:08;;;;;;;;;;;;;;;;;;2098292;28;19962;-55
2022/10/21 04:20:09;;;;;;;;;;;;;;;;;;2098409;28;19956;-55
2022/10/21 04:21:10;;;;;;;;;;;;;;;;;;2098331;28;19920;-55
2022/10/21 04:22:11;;;;;;;;;;;;;;;;;;2098459;28;19924;-45
2022/10/21 04:23:12;;;;;;;;;;;;;;;;;;2098182;28;20007;-44
2022/10/21 04:24:12;;;;;;;;;;;;;;;;;;2098353;28;20389;-44
2022/10/21 04:25:13;;;;;;;;;;;;;;;;;;2098381;28;19989;-44
2022/10/21 04:26:14;;;;;;;;;;;;;;;;;;2098236;28;20064;-44
2022/10/21 04:27:15;;;;;;;;;;;;;;;;;;2098312;28;20005;-44
2022/10/21 04:28:16;;;;;;;;;;;;;;;;;;2098178;28;19920;-44
2022/10/21 04:29:17;;;;;;;;;;;;;;;;;;2098319;28;19931;-44
2022/10/21 04:30:17;;;;;;;;;;;;;;;;;;2098305;28;19920;-44
2022/10/21 04:31:18;;;;;;;;;;;;;;;;;;2098293;28;19936;-44
2022/10/21 04:32:19;;;;;;;;;;;;;;;;;;2098188;28;19928;-44
2022/10/21 04:33:20;;;;;;;;;;;;;;;;;;2098167;28;19946;-44
2022/10/21 04:34:21;;;;;;;;;;;;;;;;;;2098204;28;19920;-44
2022/10/21 04:35:22;;;;;;;;;;;;;;;;;;2098163;28;19948;-44
2022/10/21 04:36:22;;;;;;;;;;;;;;;;;;2098207;28;20284;-44
2022/10/21 04:37:23;;;;;;;;;;;;;;;;;;2098001;28;19959;-44
2022/10/21 04:38:24;;;;;;;;;;;;;;;;;;2098251;28;20389;-44
2022/10/21 04:39:25;;;;;;;;;;;;;;;;;;2098204;28;20342;-44
2022/10/21 04:40:25;;;;;;;;;;;;;;;;;;2098312;28;19943;-44
2022/10/21 04:41:27;;;;;;;;;;;;;;;;;;2098088;28;19947;-44
2022/10/21 04:42:27;;;;;;;;;;;;;;;;;;2098133;28;20437;-44
2022/10/21 04:43:33;;;;;;;;;;;;;;;;;;2098171;28;19921;-44
2022/10/21 04:44:34;;;;;;;;;;;;;;;;;;2098108;28;20053;-44
2022/10/21 04:45:35;;;;;;;;;;;;;;;;;;2098271;28;19967;-44
2022/10/21 04:46:35;;;;;;;;;;;;;;;;;;2098014;28;20377;-44
2022/10/21 04:47:36;;;;;;;;;;;;;;;;;;2098200;28;20028;-44
2022/10/21 04:48:37;;;;;;;;;;;;;;;;;;2098143;28;19927;-44
2022/10/21 04:49:38;;;;;;;;;;;;;;;;;;2098214;28;20424;-44
2022/10/21 04:50:39;;;;;;;;;;;;;;;;;;2098139;28;19966;-44
2022/10/21 04:51:40;;;;;;;;;;;;;;;;;;2098162;28;19991;-44
2022/10/21 04:52:41;;;;;;;;;;;;;;;;;;2098152;28;20284;-44
2022/10/21 04:53:42;;;;;;;;;;;;;;;;;;2098167;28;20011;-44
2022/10/21 04:54:42;;;;;;;;;;;;;;;;;;2098186;28;19921;-44
2022/10/21 04:55:43;;;;;;;;;;;;;;;;;;2098232;28;19998;-44
2022/10/21 04:56:44;;;;;;;;;;;;;;;;;;2098064;28;20147;-44
2022/10/21 04:57:45;;;;;;;;;;;;;;;;;;2098062;28;19963;-44
2022/10/21 04:58:46;;;;;;;;;;;;;;;;;;2098182;28;20356;-44
2022/10/21 04:59:47;;;;;;;;;;;;;;;;;;2098031;28;19981;-43
2022/10/21 05:00:47;;;;;;;;;;;;;;;;;;2098191;28;19924;-44
2022/10/21 05:01:48;;;;;;;;;;;;;;;;;;2097990;28;20365;-44
2022/10/21 05:02:49;;;;;;;;;;;;;;;;;;2098001;28;20007;-44
2022/10/21 05:03:50;;;;;;;;;;;;;;;;;;2098035;28;19971;-44
2022/10/21 05:04:51;;;;;;;;;;;;;;;;;;2098238;28;20091;-44
2022/10/21 05:05:52;;;;;;;;;;;;;;;;;;2098111;28;19973;-44
2022/10/21 05:06:52;;;;;;;;;;;;;;;;;;2103257;28;20011;-44
2022/10/21 05:07:53;;;;;;;;;;;;;;;;;;2106506;28;19926;-44
2022/10/21 05:08:54;;;;;;;;;;;;;;;;;;2106418;28;20337;-44
2022/10/21 05:09:55;;;;;;;;;;;;;;;;;;2104074;28;19960;-44
2022/10/21 05:10:56;;;;;;;;;;;;;;;;;;2097902;28;19928;-44
2022/10/21 05:11:56;;;;;;;;;;;;;;;;;;2098017;28;19920;-44
2022/10/21 05:12:57;;;;;;;;;;;;;;;;;;2097928;28;19928;-44
2022/10/21 05:13:58;;;;;;;;;;;;;;;;;;2101688;28;19924;-44
2022/10/21 05:14:59;;;;;;;;;;;;;;;;;;2106405;28;20262;-44
2022/10/21 05:16:00;;;;;;;;;;;;;;;;;;2106323;28;20364;-44
2022/10/21 05:17:01;;;;;;;;;;;;;;;;;;2106227;28;19973;-44
2022/10/21 05:18:02;;;;;;;;;;;;;;;;;;2106181;28;19930;-43
2022/10/21 05:19:02;;;;;;;;;;;;;;;;;;2106317;28;19943;-43
2022/10/21 05:20:03;;;;;;;;;;;;;;;;;;2107172;28;20007;-43
2022/10/21 05:21:04;;;;;;;;;;;;;;;;;;2107934;28;19926;-43
2022/10/21 05:22:05;;;;;;;;;;;;;;;;;;2107977;28;20361;-43
2022/10/21 05:23:05;;;;;;;;;;;;;;;;;;2108005;28;19919;-43
2022/10/21 05:24:07;;;;;;;;;;;;;;;;;;2107824;28;20321;-43
2022/10/21 05:25:07;;;;;;;;;;;;;;;;;;2107911;28;19931;-43
2022/10/21 05:26:08;;;;;;;;;;;;;;;;;;2107807;28;20432;-43
2022/10/21 05:27:09;;;;;;;;;;;;;;;;;;2107667;28;19926;-43
2022/10/21 05:28:10;;;;;;;;;;;;;;;;;;2107828;28;19955;-43
2022/10/21 05:29:11;;;;;;;;;;;;;;;;;;2107720;28;20311;-43
2022/10/21 05:30:11;;;;;;;;;;;;;;;;;;2107861;28;19924;-43
2022/10/21 05:31:12;;;;;;;;;;;;;;;;;;2107634;28;20330;-43
2022/10/21 05:32:13;;;;;;;;;;;;;;;;;;2107781;28;19920;-43
2022/10/21 05:33:14;;;;;;;;;;;;;;;;;;2107978;28;20308;-43
2022/10/21 05:34:15;;;;;;;;;;;;;;;;;;2107888;28;19951;-43
2022/10/21 05:35:16;;;;;;;;;;;;;;;;;;2107650;28;19923;-43
2022/10/21 05:36:16;;;;;;;;;;;;;;;;;;2107826;28;19947;-44
2022/10/21 05:37:19;;;;;;;;;;;;;;;;;;2107669;28;20270;-43
2022/10/21 05:38:20;;;;;;;;;;;;;;;;;;2107618;28;19973;-43
2022/10/21 05:39:21;;;;;;;;;;;;;;;;;;2107805;28;20296;-44
2022/10/21 05:40:22;;;;;;;;;;;;;;;;;;2107613;28;20022;-44
2022/10/21 05:41:23;;;;;;;;;;;;;;;;;;2107610;28;19920;-44
2022/10/21 05:42:24;;;;;;;;;;;;;;;;;;2107605;28;20000;-44
2022/10/21 05:43:26;;;;;;;;;;;;;;;;;;2107655;28;19920;-44
2022/10/21 05:44:27;;;;;;;;;;;;;;;;;;2107726;28;19924;-45
2022/10/21 05:45:28;;;;;;;;;;;;;;;;;;2107759;28;19942;-42
2022/10/21 05:46:29;;;;;;;;;;;;;;;;;;2107684;28;19920;-45
2022/10/21 05:47:29;;;;;;;;;;;;;;;;;;2107782;28;19924;-45
2022/10/21 05:48:30;;;;;;;;;;;;;;;;;;2107716;28;20014;-45
2022/10/21 05:49:31;;;;;;;;;;;;;;;;;;2107614;28;19971;-45
2022/10/21 05:50:32;;;;;;;;;;;;;;;;;;2107739;28;20019;-44
2022/10/21 05:51:33;;;;;;;;;;;;;;;;;;2107408;28;20292;-44
2022/10/21 05:52:34;;;;;;;;;;;;;;;;;;2107677;28;19927;-45
2022/10/21 05:53:34;;;;;;;;;;;;;;;;;;2107638;28;19927;-45
2022/10/21 05:54:35;;;;;;;;;;;;;;;;;;2107623;28;20018;-44
2022/10/21 05:55:36;;;;;;;;;;;;;;;;;;2107699;28;19947;-45
2022/10/21 05:56:37;;;;;;;;;;;;;;;;;;2107489;28;20365;-45
2022/10/21 05:57:38;;;;;;;;;;;;;;;;;;2107596;28;20319;-44
2022/10/21 05:58:39;;;;;;;;;;;;;;;;;;2107494;28;19920;-45
2022/10/21 05:59:39;;;;;;;;;;;;;;;;;;2107543;28;20407;-45
2022/10/21 06:00:40;;;;;;;;;;;;;;;;;;2107569;28;19927;-45
2022/10/21 06:01:41;;;;;;;;;;;;;;;;;;2107453;28;19981;-45
2022/10/21 06:02:42;;;;;;;;;;;;;;;;;;2107443;28;19997;-45
2022/10/21 06:03:43;;;;;;;;;;;;;;;;;;2107510;28;19974;-45
2022/10/21 06:04:44;;;;;;;;;;;;;;;;;;2107506;28;19970;-45
2022/10/21 06:05:44;;;;;;;;;;;;;;;;;;2107516;28;19920;-45
2022/10/21 06:06:45;;;;;;;;;;;;;;;;;;2107787;28;19955;-45
2022/10/21 06:07:46;;;;;;;;;;;;;;;;;;2107489;28;20558;-45
2022/10/21 06:08:47;;;;;;;;;;;;;;;;;;2107502;28;19935;-45
2022/10/21 06:09:48;;;;;;;;;;;;;;;;;;2106079;28;19926;-45
2022/10/21 06:10:49;;;;;;;;;;;;;;;;;;2107476;28;19920;-45
2022/10/21 06:11:50;;;;;;;;;;;;;;;;;;2107321;28;19966;-43
2022/10/21 06:12:50;;;;;;;;;;;;;;;;;;2107435;28;20289;-45
2022/10/21 06:13:51;;;;;;;;;;;;;;;;;;2107531;28;20015;-45
2022/10/21 06:14:52;;;;;;;;;;;;;;;;;;2107578;28;19927;-45
2022/10/21 06:15:53;;;;;;;;;;;;;;;;;;2107548;28;19920;-43
2022/10/21 06:16:54;;;;;;;;;;;;;;;;;;2107481;28;19920;-45
2022/10/21 06:17:55;;;;;;;;;;;;;;;;;;2107556;28;19969;-45
2022/10/21 06:18:56;;;;;;;;;;;;;;;;;;2107464;28;20018;-43
2022/10/21 06:19:57;;;;;;;;;;;;;;;;;;2107544;28;19920;-42
2022/10/21 06:20:57;;;;;;;;;;;;;;;;;;2107371;28;20039;-44
2022/10/21 06:21:58;;;;;;;;;;;;;;;;;;2107322;28;20022;-44
2022/10/21 06:22:59;;;;;;;;;;;;;;;;;;2107422;28;20311;-44
2022/10/21 06:24:00;;;;;;;;;;;;;;;;;;2107486;28;20281;-44
2022/10/21 06:25:01;;;;;;;;;;;;;;;;;;2107432;28;19961;-45
2022/10/21 06:26:02;;;;;;;;;;;;;;;;;;2107522;28;20360;-45
2022/10/21 06:27:03;;;;;;;;;;;;;;;;;;2107373;28;19939;-45
2022/10/21 06:28:04;;;;;;;;;;;;;;;;;;2107388;28;19924;-44
2022/10/21 06:29:05;;;;;;;;;;;;;;;;;;2103896;28;20019;-43
2022/10/21 06:30:06;;;;;;;;;;;;;;;;;;2098951;28;20361;-44
2022/10/21 06:31:06;;;;;;;;;;;;;;;;;;2098528;28;20022;-44
2022/10/21 06:32:07;;;;;;;;;;;;;;;;;;2098994;28;19971;-44
2022/10/21 06:33:08;;;;;;;;;;;;;;;;;;2099081;28;19927;-44
2022/10/21 06:34:09;;;;;;;;;;;;;;;;;;2099004;28;20416;-44
2022/10/21 06:35:10;;;;;;;;;;;;;;;;;;2098988;28;19924;-44
2022/10/21 06:36:11;;;;;;;;;;;;;;;;;;2098917;28;19989;-44
2022/10/21 06:37:11;;;;;;;;;;;;;;;;;;2098934;28;19925;-44
2022/10/21 06:38:12;;;;;;;;;;;;;;;;;;2098971;28;19920;-44
2022/10/21 06:39:13;;;;;;;;;;;;;;;;;;2098977;28;19927;-44
2022/10/21 06:40:14;;;;;;;;;;;;;;;;;;2099121;28;19926;-44
2022/10/21 06:41:16;;;;;;;;;;;;;;;;;;2098994;28;20420;-43
2022/10/21 06:42:17;;;;;;;;;;;;;;;;;;2099026;28;19963;-45
2022/10/21 06:43:18;;;;;;;;;;;;;;;;;;2098854;28;20006;-44
2022/10/21 06:44:19;;;;;;;;;;;;;;;;;;2098940;28;19974;-44
2022/10/21 06:45:20;;;;;;;;;;;;;;;;;;2099030;28;19921;-44
2022/10/21 06:46:21;;;;;;;;;;;;;;;;;;2098879;28;19921;-44
2022/10/21 06:47:21;;;;;;;;;;;;;;;;;;2098895;28;19962;-45
2022/10/21 06:48:23;;;;;;;;;;;;;;;;;;2098808;28;19943;-44
2022/10/21 06:49:23;;;;;;;;;;;;;;;;;;2099042;28;20381;-44
2022/10/21 06:50:24;;;;;;;;;;;;;;;;;;2098857;28;19943;-43
2022/10/21 06:51:25;;;;;;;;;;;;;;;;;;2098772;28;19966;-44
2022/10/21 06:52:26;;;;;;;;;;;;;;;;;;2098793;28;19920;-44
2022/10/21 06:53:32;;;;;;;;;;;;;;;;;;2098834;28;19973;-44
2022/10/21 06:54:34;;;;;;;;;;;;;;;;;;2098789;28;20442;-44
2022/10/21 06:55:35;;;;;;;;;;;;;;;;;;2098986;28;19920;-44
2022/10/21 06:56:36;;;;;;;;;;;;;;;;;;2098815;28;19920;-44